Wetterdaten: aktuell Freitag, 15.12.2017 20:15
Datum Zeit Temp. A. Temp. 2 Feuchte A. Luftdruck Regen Wind Richtung Richtung Sonnenschein Windben
15.12.2017 20:15 2,3 C 2,2 C 92 % 999,3 hPa 0,0 l/m 4,8 km/h (1 Bft) SW 225 0 min 14,5 km/h (3 Bft)
15.12.2017 20:10 2,3 C 2,2 C 92 % 999,3 hPa 0,0 l/m 4,8 km/h (1 Bft) SW 225 0 min 12,9 km/h (3 Bft)
15.12.2017 20:05 2,3 C 2,2 C 92 % 999,3 hPa 0,0 l/m 3,2 km/h (1 Bft) SW 225 0 min 12,9 km/h (3 Bft)
15.12.2017 20:00 2,3 C 2,2 C 92 % 999,2 hPa 0,0 l/m 3,2 km/h (1 Bft) SW 225 0 min 11,3 km/h (2 Bft)
15.12.2017 19:55 2,3 C 2,2 C 92 % 999,2 hPa 0,0 l/m 0,0 km/h (0 Bft) SW 225 0 min 4,8 km/h (1 Bft)
15.12.2017 19:50 2,3 C 2,2 C 92 % 999,2 hPa 0,0 l/m 0,0 km/h (0 Bft) SW 225 0 min 8,0 km/h (2 Bft)
15.12.2017 19:45 2,3 C 2,2 C 92 % 999,2 hPa 0,0 l/m 0,0 km/h (0 Bft) N 0 0 min 0,0 km/h (0 Bft)
15.12.2017 19:40 2,3 C 2,2 C 92 % 999,2 hPa 0,0 l/m 3,2 km/h (1 Bft) SW 225 0 min 9,7 km/h (2 Bft)
15.12.2017 19:35 2,3 C 2,2 C 92 % 999,2 hPa 0,0 l/m 1,6 km/h (1 Bft) SW 225 0 min 11,3 km/h (2 Bft)
15.12.2017 19:30 2,3 C 2,2 C 92 % 999,1 hPa 0,0 l/m 0,0 km/h (0 Bft) N 0 0 min 0,0 km/h (0 Bft)
15.12.2017 19:25 2,3 C 2,2 C 92 % 999,1 hPa 0,0 l/m 0,0 km/h (0 Bft) N 0 0 min 0,0 km/h (0 Bft)
15.12.2017 19:20 2,3 C 2,2 C 92 % 999,0 hPa 0,0 l/m 0,0 km/h (0 Bft) N 0 0 min 0,0 km/h (0 Bft)
15.12.2017 19:15 2,3 C 2,2 C 92 % 999,0 hPa 0,0 l/m 0,0 km/h (0 Bft) N 0 0 min 0,0 km/h (0 Bft)
15.12.2017 19:10 2,3 C 2,2 C 92 % 998,9 hPa 0,0 l/m 0,0 km/h (0 Bft) N 0 0 min 0,0 km/h (0 Bft)
15.12.2017 19:05 2,3 C 2,2 C 92 % 998,9 hPa 0,0 l/m 0,0 km/h (0 Bft) N 0 0 min 0,0 km/h (0 Bft)
15.12.2017 19:00 2,3 C 2,2 C 92 % 998,8 hPa 0,0 l/m 0,0 km/h (0 Bft) N 0 0 min 0,0 km/h (0 Bft)
15.12.2017 18:55 2,3 C 2,2 C 92 % 998,8 hPa 0,0 l/m 0,0 km/h (0 Bft) N 0 0 min 0,0 km/h (0 Bft)
15.12.2017 18:50 2,3 C 2,2 C 91 % 998,8 hPa 0,0 l/m 0,0 km/h (0 Bft) N 0 0 min 0,0 km/h (0 Bft)
15.12.2017 18:45 2,3 C 2,2 C 91 % 998,7 hPa 0,0 l/m 0,0 km/h (0 Bft) N 0 0 min 0,0 km/h (0 Bft)
15.12.2017 18:40 2,3 C 2,2 C 92 % 998,6 hPa 0,0 l/m 3,2 km/h (1 Bft) SW 225 0 min 9,7 km/h (2 Bft)
15.12.2017 18:35 2,3 C 2,2 C 92 % 998,5 hPa 0,0 l/m 4,8 km/h (1 Bft) SW 225 0 min 12,9 km/h (3 Bft)
15.12.2017 18:30 2,3 C 2,2 C 92 % 998,5 hPa 0,0 l/m 8,0 km/h (2 Bft) S-SW 202 0 min 16,1 km/h (3 Bft)
15.12.2017 18:25 2,3 C 2,2 C 92 % 998,5 hPa 0,0 l/m 6,4 km/h (2 Bft) S-SW 202 0 min 14,5 km/h (3 Bft)
15.12.2017 18:20 2,3 C 2,2 C 92 % 998,4 hPa 0,0 l/m 1,6 km/h (1 Bft) S-SW 202 0 min 11,3 km/h (2 Bft)
15.12.2017 18:15 2,3 C 2,2 C 92 % 998,4 hPa 0,0 l/m 0,0 km/h (0 Bft) S-SW 202 0 min 8,0 km/h (2 Bft)
15.12.2017 18:10 2,4 C 2,2 C 92 % 998,4 hPa 0,0 l/m 1,6 km/h (1 Bft) S-SW 202 0 min 12,9 km/h (3 Bft)
15.12.2017 18:05 2,4 C 2,2 C 92 % 998,4 hPa 0,0 l/m 3,2 km/h (1 Bft) S-SW 202 0 min 8,0 km/h (2 Bft)
15.12.2017 18:00 2,4 C 2,2 C 92 % 998,4 hPa 0,0 l/m 1,6 km/h (1 Bft) S-SW 202 0 min 9,7 km/h (2 Bft)
15.12.2017 17:55 2,5 C 2,2 C 92 % 998,3 hPa 0,0 l/m 3,2 km/h (1 Bft) S-SW 202 0 min 8,0 km/h (2 Bft)
15.12.2017 17:50 2,5 C 2,2 C 92 % 998,3 hPa 0,0 l/m 3,2 km/h (1 Bft) S-SW 202 0 min 14,5 km/h (3 Bft)
15.12.2017 17:45 2,6 C 2,2 C 92 % 998,3 hPa 0,0 l/m 3,2 km/h (1 Bft) S-SW 202 0 min 9,7 km/h (2 Bft)
15.12.2017 17:40 2,6 C 2,8 C 92 % 998,2 hPa 0,0 l/m 3,2 km/h (1 Bft) S-SW 202 0 min 12,9 km/h (3 Bft)
15.12.2017 17:35 2,6 C 2,8 C 92 % 998,2 hPa 0,0 l/m 3,2 km/h (1 Bft) S-SW 202 0 min 9,7 km/h (2 Bft)
15.12.2017 17:30 2,6 C 2,8 C 92 % 998,1 hPa 0,0 l/m 0,0 km/h (0 Bft) S-SW 202 0 min 12,9 km/h (3 Bft)
15.12.2017 17:25 2,6 C 2,8 C 92 % 998,0 hPa 0,0 l/m 0,0 km/h (0 Bft) N 0 0 min 0,0 km/h (0 Bft)
15.12.2017 17:20 2,6 C 2,8 C 92 % 998,0 hPa 0,0 l/m 0,0 km/h (0 Bft) N 0 0 min 0,0 km/h (0 Bft)
15.12.2017 17:15 2,6 C 2,8 C 92 % 997,9 hPa 0,0 l/m 0,0 km/h (0 Bft) N 0 0 min 0,0 km/h (0 Bft)
15.12.2017 17:10 2,6 C 2,8 C 92 % 997,9 hPa 0,0 l/m 0,0 km/h (0 Bft) N 0 0 min 0,0 km/h (0 Bft)
15.12.2017 17:05 2,6 C 2,8 C 92 % 997,8 hPa 0,0 l/m 0,0 km/h (0 Bft) N 0 0 min 0,0 km/h (0 Bft)
15.12.2017 17:00 2,6 C 2,8 C 92 % 997,8 hPa 0,0 l/m 1,6 km/h (1 Bft) S-SW 202 0 min 12,9 km/h (3 Bft)
15.12.2017 16:55 2,6 C 2,8 C 92 % 997,8 hPa 0,0 l/m 0,0 km/h (0 Bft) N 0 0 min 0,0 km/h (0 Bft)
15.12.2017 16:50 2,6 C 2,8 C 92 % 997,8 hPa 0,0 l/m 1,6 km/h (1 Bft) S-SW 202 0 min 8,0 km/h (2 Bft)
15.12.2017 16:45 2,6 C 2,8 C 92 % 997,7 hPa 0,0 l/m 1,6 km/h (1 Bft) S-SW 202 0 min 11,3 km/h (2 Bft)
15.12.2017 16:40 2,6 C 2,8 C 92 % 997,7 hPa 0,0 l/m 3,2 km/h (1 Bft) S-SW 202 0 min 12,9 km/h (3 Bft)
15.12.2017 16:35 2,6 C 2,8 C 92 % 997,6 hPa 0,0 l/m 3,2 km/h (1 Bft) S-SW 202 0 min 12,9 km/h (3 Bft)
15.12.2017 16:30 2,7 C 2,8 C 92 % 997,5 hPa 0,0 l/m 1,6 km/h (1 Bft) S-SW 202 0 min 8,0 km/h (2 Bft)
15.12.2017 16:25 2,7 C 2,8 C 92 % 997,5 hPa 0,0 l/m 3,2 km/h (1 Bft) S-SW 202 0 min 12,9 km/h (3 Bft)
15.12.2017 16:20 2,7 C 2,8 C 92 % 997,4 hPa 0,0 l/m 1,6 km/h (1 Bft) S-SW 202 0 min 6,4 km/h (2 Bft)
15.12.2017 16:15 2,7 C 2,8 C 92 % 997,3 hPa 0,0 l/m 1,6 km/h (1 Bft) S-SW 202 0 min 8,0 km/h (2 Bft)
15.12.2017 16:10 2,7 C 2,8 C 92 % 997,2 hPa 0,0 l/m 1,6 km/h (1 Bft) S-SW 202 0 min 9,7 km/h (2 Bft)
15.12.2017 16:05 2,8 C 2,8 C 92 % 997,2 hPa 0,0 l/m 1,6 km/h (1 Bft) S-SW 202 0 min 8,0 km/h (2 Bft)
15.12.2017 16:00 2,8 C 2,8 C 92 % 997,2 hPa 0,0 l/m 3,2 km/h (1 Bft) S-SW 202 0 min 9,7 km/h (2 Bft)
15.12.2017 15:55 2,8 C 2,8 C 92 % 997,1 hPa 0,0 l/m 0,0 km/h (0 Bft) S-SW 202 0 min 4,8 km/h (1 Bft)
15.12.2017 15:50 2,8 C 2,8 C 92 % 997,1 hPa 0,0 l/m 1,6 km/h (1 Bft) S-SW 202 0 min 9,7 km/h (2 Bft)
15.12.2017 15:45 2,8 C 2,8 C 92 % 996,9 hPa 0,0 l/m 0,0 km/h (0 Bft) N 0 0 min 0,0 km/h (0 Bft)
15.12.2017 15:40 2,8 C 2,8 C 92 % 996,9 hPa 0,0 l/m 0,0 km/h (0 Bft) N 0 0 min 0,0 km/h (0 Bft)
15.12.2017 15:35 2,8 C 2,8 C 92 % 996,8 hPa 0,0 l/m 0,0 km/h (0 Bft) N 0 0 min 0,0 km/h (0 Bft)
15.12.2017 15:30 2,8 C 2,8 C 92 % 996,7 hPa 0,0 l/m 0,0 km/h (0 Bft) N 0 0 min 0,0 km/h (0 Bft)
15.12.2017 15:25 2,8 C 2,8 C 92 % 996,7 hPa 0,0 l/m 0,0 km/h (0 Bft) N 0 0 min 0,0 km/h (0 Bft)
15.12.2017 15:20 2,8 C 2,8 C 92 % 996,7 hPa 0,0 l/m 0,0 km/h (0 Bft) N 0 0 min 0,0 km/h (0 Bft)
15.12.2017 15:15 2,8 C 2,8 C 92 % 996,7 hPa 0,0 l/m 0,0 km/h (0 Bft) N 0 0 min 0,0 km/h (0 Bft)
15.12.2017 15:10 2,8 C 2,8 C 92 % 996,6 hPa 0,0 l/m 0,0 km/h (0 Bft) N 0 0 min 0,0 km/h (0 Bft)
15.12.2017 15:05 2,8 C 2,8 C 92 % 996,6 hPa 0,0 l/m 0,0 km/h (0 Bft) N 0 0 min 0,0 km/h (0 Bft)
15.12.2017 15:00 2,8 C 2,8 C 92 % 996,6 hPa 0,0 l/m 0,0 km/h (0 Bft) N 0 0 min 0,0 km/h (0 Bft)
15.12.2017 14:55 2,8 C 2,8 C 92 % 996,5 hPa 0,0 l/m 0,0 km/h (0 Bft) N 0 0 min 0,0 km/h (0 Bft)
15.12.2017 14:50 2,8 C 3,3 C 92 % 996,5 hPa 0,0 l/m 0,0 km/h (0 Bft) N 0 0 min 0,0 km/h (0 Bft)
15.12.2017 14:45 2,8 C 3,3 C 92 % 996,5 hPa 0,0 l/m 0,0 km/h (0 Bft) N 0 0 min 0,0 km/h (0 Bft)
15.12.2017 14:40 2,8 C 3,3 C 92 % 996,4 hPa 0,0 l/m 0,0 km/h (0 Bft) S-SW 202 0 min 1,6 km/h (1 Bft)
15.12.2017 14:35 2,8 C 3,3 C 92 % 996,4 hPa 0,0 l/m 0,0 km/h (0 Bft) N 0 0 min 0,0 km/h (0 Bft)
15.12.2017 14:30 2,8 C 3,3 C 92 % 996,2 hPa 0,0 l/m 0,0 km/h (0 Bft) N 0 0 min 0,0 km/h (0 Bft)
15.12.2017 14:25 2,8 C 3,3 C 92 % 996,2 hPa 0,0 l/m 1,6 km/h (1 Bft) S-SW 202 0 min 6,4 km/h (2 Bft)
15.12.2017 14:20 2,8 C 3,3 C 92 % 996,2 hPa 0,0 l/m 1,6 km/h (1 Bft) S-SW 202 0 min 9,7 km/h (2 Bft)
15.12.2017 14:15 2,8 C 3,3 C 92 % 996,1 hPa 0,0 l/m 3,2 km/h (1 Bft) S-SW 202 0 min 14,5 km/h (3 Bft)
15.12.2017 14:10 2,8 C 3,3 C 92 % 996,0 hPa 0,0 l/m 0,0 km/h (0 Bft) N 0 0 min 0,0 km/h (0 Bft)
15.12.2017 14:05 2,8 C 3,3 C 92 % 996,0 hPa 0,0 l/m 0,0 km/h (0 Bft) S-SW 202 0 min 1,6 km/h (1 Bft)
15.12.2017 14:00 2,8 C 3,3 C 92 % 995,9 hPa 0,0 l/m 0,0 km/h (0 Bft) N 0 0 min 0,0 km/h (0 Bft)
15.12.2017 13:55 2,8 C 3,3 C 92 % 995,9 hPa 0,0 l/m 0,0 km/h (0 Bft) S-SW 202 0 min 3,2 km/h (1 Bft)
15.12.2017 13:50 2,8 C 3,3 C 92 % 995,9 hPa 0,0 l/m 1,6 km/h (1 Bft) S-SW 202 0 min 12,9 km/h (3 Bft)
15.12.2017 13:45 2,8 C 3,3 C 92 % 995,8 hPa 0,0 l/m 4,8 km/h (1 Bft) S-SW 202 0 min 14,5 km/h (3 Bft)
15.12.2017 13:40 2,8 C 3,3 C 92 % 995,8 hPa 0,0 l/m 3,2 km/h (1 Bft) S-SW 202 0 min 11,3 km/h (2 Bft)
15.12.2017 13:35 2,8 C 3,3 C 92 % 995,7 hPa 0,0 l/m 3,2 km/h (1 Bft) S-SW 202 0 min 12,9 km/h (3 Bft)
15.12.2017 13:30 2,8 C 3,3 C 92 % 995,6 hPa 0,0 l/m 0,0 km/h (0 Bft) S-SW 202 0 min 4,8 km/h (1 Bft)
15.12.2017 13:25 2,8 C 3,3 C 92 % 995,6 hPa 0,0 l/m 1,6 km/h (1 Bft) S-SW 202 0 min 9,7 km/h (2 Bft)
15.12.2017 13:20 2,8 C 3,3 C 92 % 995,6 hPa 0,0 l/m 0,0 km/h (0 Bft) N 0 0 min 0,0 km/h (0 Bft)
15.12.2017 13:15 2,8 C 3,3 C 92 % 995,7 hPa 0,0 l/m 6,4 km/h (2 Bft) S-SW 202 0 min 14,5 km/h (3 Bft)
15.12.2017 13:10 2,8 C 3,3 C 92 % 995,6 hPa 0,0 l/m 6,4 km/h (2 Bft) S-SW 202 0 min 12,9 km/h (3 Bft)
15.12.2017 13:05 2,8 C 3,3 C 92 % 995,6 hPa 0,0 l/m 6,4 km/h (2 Bft) S-SW 202 0 min 12,9 km/h (3 Bft)
15.12.2017 13:00 2,8 C 3,3 C 92 % 995,4 hPa 0,0 l/m 3,2 km/h (1 Bft) S-SW 202 0 min 9,7 km/h (2 Bft)
15.12.2017 12:55 2,8 C 3,3 C 92 % 995,4 hPa 0,0 l/m 3,2 km/h (1 Bft) S-SW 202 0 min 9,7 km/h (2 Bft)
15.12.2017 12:50 2,8 C 3,3 C 92 % 995,4 hPa 0,0 l/m 6,4 km/h (2 Bft) S-SW 202 0 min 12,9 km/h (3 Bft)
15.12.2017 12:45 2,8 C 3,3 C 92 % 995,4 hPa 0,0 l/m 0,0 km/h (0 Bft) S-SW 202 0 min 11,3 km/h (2 Bft)
15.12.2017 12:40 2,8 C 3,3 C 92 % 995,2 hPa 0,0 l/m 1,6 km/h (1 Bft) S-SW 202 0 min 9,7 km/h (2 Bft)
15.12.2017 12:35 2,8 C 3,3 C 92 % 995,1 hPa 0,0 l/m 3,2 km/h (1 Bft) S-SW 202 0 min 9,7 km/h (2 Bft)
15.12.2017 12:30 2,8 C 3,3 C 92 % 995,2 hPa 0,0 l/m 4,8 km/h (1 Bft) S-SW 202 0 min 9,7 km/h (2 Bft)
15.12.2017 12:25 2,8 C 3,3 C 92 % 995,2 hPa 0,0 l/m 3,2 km/h (1 Bft) S-SW 202 0 min 11,3 km/h (2 Bft)
15.12.2017 12:20 2,8 C 3,3 C 92 % 995,2 hPa 0,0 l/m 3,2 km/h (1 Bft) S-SW 202 0 min 12,9 km/h (3 Bft)
15.12.2017 12:15 2,8 C 3,3 C 92 % 995,1 hPa 0,0 l/m 8,0 km/h (2 Bft) S-SW 202 0 min 14,5 km/h (3 Bft)
15.12.2017 12:10 2,9 C 3,3 C 92 % 995,1 hPa 0,0 l/m 9,7 km/h (2 Bft) S-SW 202 0 min 14,5 km/h (3 Bft)
15.12.2017 12:05 3,1 C 3,9 C 93 % 995,0 hPa 0,0 l/m 6,4 km/h (2 Bft) S-SW 202 0 min 14,5 km/h (3 Bft)
15.12.2017 12:00 3,0 C 4,4 C 93 % 995,0 hPa 0,0 l/m 0,0 km/h (0 Bft) N 0 0 min 0,0 km/h (0 Bft)
15.12.2017 11:55 3,0 C 3,9 C 93 % 994,9 hPa 0,0 l/m 1,6 km/h (1 Bft) S-SW 202 0 min 9,7 km/h (2 Bft)
15.12.2017 11:50 2,9 C 3,9 C 93 % 994,8 hPa 0,0 l/m 1,6 km/h (1 Bft) S-SW 202 0 min 6,4 km/h (2 Bft)
15.12.2017 11:45 2,9 C 3,9 C 93 % 994,8 hPa 0,0 l/m 4,8 km/h (1 Bft) S-SW 202 0 min 11,3 km/h (2 Bft)
15.12.2017 11:40 2,9 C 3,9 C 93 % 994,8 hPa 0,0 l/m 3,2 km/h (1 Bft) S-SW 202 0 min 14,5 km/h (3 Bft)
15.12.2017 11:35 2,8 C 3,9 C 93 % 994,6 hPa 0,0 l/m 4,8 km/h (1 Bft) S-SW 202 0 min 11,3 km/h (2 Bft)
15.12.2017 11:30 2,8 C 3,9 C 93 % 994,6 hPa 0,0 l/m 4,8 km/h (1 Bft) S-SW 202 0 min 9,7 km/h (2 Bft)
15.12.2017 11:25 2,7 C 3,9 C 94 % 994,6 hPa 0,0 l/m 3,2 km/h (1 Bft) S-SW 202 0 min 8,0 km/h (2 Bft)
15.12.2017 11:20 2,7 C 3,9 C 94 % 994,6 hPa 0,0 l/m 0,0 km/h (0 Bft) N 0 0 min 0,0 km/h (0 Bft)
15.12.2017 11:15 2,6 C 3,9 C 94 % 994,5 hPa 0,0 l/m 1,6 km/h (1 Bft) S-SW 202 5 min 11,3 km/h (2 Bft)
15.12.2017 11:10 2,5 C 3,9 C 94 % 994,5 hPa 0,0 l/m 3,2 km/h (1 Bft) S-SW 202 5 min 12,9 km/h (3 Bft)
15.12.2017 11:05 2,5 C 3,3 C 94 % 994,5 hPa 0,0 l/m 1,6 km/h (1 Bft) S-SW 202 5 min 12,9 km/h (3 Bft)
15.12.2017 11:00 2,4 C 3,3 C 94 % 994,4 hPa 0,0 l/m 0,0 km/h (0 Bft) N 0 0 min 0,0 km/h (0 Bft)
15.12.2017 10:55 2,3 C 3,3 C 94 % 994,3 hPa 0,0 l/m 0,0 km/h (0 Bft) N 0 0 min 0,0 km/h (0 Bft)
15.12.2017 10:50 2,2 C 2,8 C 94 % 994,3 hPa 0,0 l/m 3,2 km/h (1 Bft) S-SW 202 0 min 12,9 km/h (3 Bft)
15.12.2017 10:45 2,2 C 2,8 C 94 % 994,2 hPa 0,0 l/m 4,8 km/h (1 Bft) S-SW 202 0 min 9,7 km/h (2 Bft)
15.12.2017 10:40 2,1 C 2,8 C 94 % 994,2 hPa 0,0 l/m 3,2 km/h (1 Bft) S-SW 202 0 min 9,7 km/h (2 Bft)
15.12.2017 10:35 2,1 C 2,8 C 94 % 994,1 hPa 0,0 l/m 0,0 km/h (0 Bft) N 0 0 min 0,0 km/h (0 Bft)
15.12.2017 10:30 2,1 C 2,2 C 94 % 994,1 hPa 0,0 l/m 0,0 km/h (0 Bft) N 0 0 min 0,0 km/h (0 Bft)
15.12.2017 10:25 2,0 C 2,2 C 94 % 994,0 hPa 0,0 l/m 0,0 km/h (0 Bft) N 0 0 min 0,0 km/h (0 Bft)
15.12.2017 10:20 2,0 C 2,2 C 94 % 993,9 hPa 0,0 l/m 0,0 km/h (0 Bft) N 0 0 min 0,0 km/h (0 Bft)
15.12.2017 10:15 2,1 C 2,2 C 94 % 993,8 hPa 0,0 l/m 0,0 km/h (0 Bft) N 0 0 min 0,0 km/h (0 Bft)
15.12.2017 10:10 2,0 C 2,2 C 94 % 993,9 hPa 0,0 l/m 0,0 km/h (0 Bft) N 0 0 min 0,0 km/h (0 Bft)
15.12.2017 10:05 1,9 C 2,2 C 94 % 993,8 hPa 0,0 l/m 0,0 km/h (0 Bft) N 0 0 min 0,0 km/h (0 Bft)
15.12.2017 10:00 1,9 C 2,2 C 94 % 993,7 hPa 0,0 l/m 0,0 km/h (0 Bft) N 0 0 min 0,0 km/h (0 Bft)
15.12.2017 09:55 1,9 C 2,2 C 94 % 993,7 hPa 0,0 l/m 0,0 km/h (0 Bft) N 0 0 min 0,0 km/h (0 Bft)
15.12.2017 09:50 1,9 C 1,7 C 94 % 993,6 hPa 0,0 l/m 0,0 km/h (0 Bft) N 0 0 min 0,0 km/h (0 Bft)
15.12.2017 09:45 1,9 C 1,7 C 94 % 993,5 hPa 0,0 l/m 0,0 km/h (0 Bft) N 0 0 min 0,0 km/h (0 Bft)
15.12.2017 09:40 1,9 C 1,7 C 94 % 993,4 hPa 0,0 l/m 0,0 km/h (0 Bft) N 0 0 min 0,0 km/h (0 Bft)
15.12.2017 09:35 1,9 C 1,7 C 94 % 993,3 hPa 0,0 l/m 0,0 km/h (0 Bft) N 0 0 min 0,0 km/h (0 Bft)
15.12.2017 09:30 1,9 C 1,7 C 94 % 993,3 hPa 0,0 l/m 0,0 km/h (0 Bft) N 0 0 min 0,0 km/h (0 Bft)
15.12.2017 09:25 1,9 C 1,1 C 94 % 993,2 hPa 0,0 l/m 0,0 km/h (0 Bft) N 0 0 min 0,0 km/h (0 Bft)
15.12.2017 09:20 2,0 C 1,1 C 94 % 993,2 hPa 0,0 l/m 0,0 km/h (0 Bft) N 0 0 min 0,0 km/h (0 Bft)
15.12.2017 09:15 2,1 C 1,1 C 94 % 993,0 hPa 0,0 l/m 0,0 km/h (0 Bft) N 0 0 min 0,0 km/h (0 Bft)
15.12.2017 09:10 2,1 C 1,7 C 94 % 993,0 hPa 0,0 l/m 0,0 km/h (0 Bft) N 0 0 min 0,0 km/h (0 Bft)
15.12.2017 09:05 2,1 C 1,7 C 94 % 993,0 hPa 0,0 l/m 0,0 km/h (0 Bft) N 0 0 min 0,0 km/h (0 Bft)
15.12.2017 09:00 2,1 C 1,7 C 94 % 993,0 hPa 0,0 l/m 0,0 km/h (0 Bft) N 0 0 min 0,0 km/h (0 Bft)
15.12.2017 08:55 2,1 C 1,7 C 94 % 992,9 hPa 0,0 l/m 0,0 km/h (0 Bft) N 0 0 min 0,0 km/h (0 Bft)
15.12.2017 08:50 2,1 C 1,7 C 94 % 992,9 hPa 0,0 l/m 0,0 km/h (0 Bft) N 0 0 min 0,0 km/h (0 Bft)
15.12.2017 08:45 2,1 C 2,2 C 94 % 992,9 hPa 0,0 l/m 0,0 km/h (0 Bft) N 0 0 min 0,0 km/h (0 Bft)
15.12.2017 08:40 2,1 C 2,2 C 94 % 992,8 hPa 0,0 l/m 0,0 km/h (0 Bft) N 0 0 min 0,0 km/h (0 Bft)
15.12.2017 08:35 2,0 C 2,2 C 94 % 992,7 hPa 0,0 l/m 0,0 km/h (0 Bft) N 0 0 min 0,0 km/h (0 Bft)
15.12.2017 08:30 2,0 C 1,7 C 94 % 992,7 hPa 0,0 l/m 0,0 km/h (0 Bft) N 0 0 min 0,0 km/h (0 Bft)
15.12.2017 08:25 2,0 C 1,7 C 94 % 992,6 hPa 0,0 l/m 0,0 km/h (0 Bft) N 0 0 min 0,0 km/h (0 Bft)
15.12.2017 08:20 2,0 C 1,7 C 94 % 992,6 hPa 0,0 l/m 0,0 km/h (0 Bft) N 0 0 min 0,0 km/h (0 Bft)
15.12.2017 08:15 2,0 C 1,7 C 94 % 992,6 hPa 0,0 l/m 0,0 km/h (0 Bft) N 0 0 min 0,0 km/h (0 Bft)
15.12.2017 08:10 2,0 C 1,7 C 94 % 992,5 hPa 0,0 l/m 0,0 km/h (0 Bft) N 0 0 min 0,0 km/h (0 Bft)
15.12.2017 08:05 2,0 C 1,7 C 94 % 992,4 hPa 0,0 l/m 0,0 km/h (0 Bft) N 0 0 min 0,0 km/h (0 Bft)
15.12.2017 08:00 1,9 C 1,7 C 94 % 992,4 hPa 0,0 l/m 0,0 km/h (0 Bft) N 0 0 min 0,0 km/h (0 Bft)
15.12.2017 07:55 1,9 C 1,7 C 94 % 992,4 hPa 0,0 l/m 0,0 km/h (0 Bft) N 0 0 min 0,0 km/h (0 Bft)
15.12.2017 07:50 1,9 C 1,7 C 94 % 992,4 hPa 0,0 l/m 0,0 km/h (0 Bft) N 0 0 min 0,0 km/h (0 Bft)
15.12.2017 07:45 1,9 C 1,7 C 94 % 992,3 hPa 0,0 l/m 0,0 km/h (0 Bft) N 0 0 min 0,0 km/h (0 Bft)
15.12.2017 07:40 1,9 C 1,7 C 94 % 992,3 hPa 0,0 l/m 0,0 km/h (0 Bft) N 0 0 min 0,0 km/h (0 Bft)
15.12.2017 07:35 1,9 C 1,7 C 94 % 992,3 hPa 0,0 l/m 0,0 km/h (0 Bft) N 0 0 min 0,0 km/h (0 Bft)
15.12.2017 07:30 1,9 C 1,7 C 94 % 992,2 hPa 0,0 l/m 0,0 km/h (0 Bft) N 0 0 min 0,0 km/h (0 Bft)
15.12.2017 07:25 1,9 C 1,7 C 94 % 992,1 hPa 0,0 l/m 0,0 km/h (0 Bft) N 0 0 min 0,0 km/h (0 Bft)
15.12.2017 07:20 1,9 C 1,1 C 94 % 992,0 hPa 0,0 l/m 0,0 km/h (0 Bft) N 0 0 min 0,0 km/h (0 Bft)
15.12.2017 07:15 2,0 C 1,7 C 94 % 992,0 hPa 0,0 l/m 0,0 km/h (0 Bft) N 0 0 min 0,0 km/h (0 Bft)
15.12.2017 07:10 2,0 C 1,7 C 94 % 992,0 hPa 0,0 l/m 0,0 km/h (0 Bft) N 0 0 min 0,0 km/h (0 Bft)
15.12.2017 07:05 2,0 C 1,7 C 94 % 991,9 hPa 0,0 l/m 0,0 km/h (0 Bft) N 0 0 min 0,0 km/h (0 Bft)
15.12.2017 07:00 2,1 C 1,1 C 94 % 991,8 hPa 0,0 l/m 0,0 km/h (0 Bft) N 0 0 min 0,0 km/h (0 Bft)
15.12.2017 06:55 2,1 C 1,1 C 94 % 991,8 hPa 0,0 l/m 0,0 km/h (0 Bft) N 0 0 min 0,0 km/h (0 Bft)
15.12.2017 06:50 2,1 C 1,1 C 94 % 991,7 hPa 0,0 l/m 0,0 km/h (0 Bft) N 0 0 min 0,0 km/h (0 Bft)
15.12.2017 06:45 2,1 C 1,7 C 94 % 991,7 hPa 0,0 l/m 0,0 km/h (0 Bft) N 0 0 min 0,0 km/h (0 Bft)
15.12.2017 06:40 2,1 C 1,7 C 94 % 991,6 hPa 0,0 l/m 0,0 km/h (0 Bft) N 0 0 min 0,0 km/h (0 Bft)
15.12.2017 06:35 2,1 C 1,7 C 94 % 991,5 hPa 0,0 l/m 0,0 km/h (0 Bft) S-SW 202 0 min 3,2 km/h (1 Bft)
15.12.2017 06:30 2,1 C 1,7 C 94 % 991,5 hPa 0,0 l/m 0,0 km/h (0 Bft) S-SW 202 0 min 8,0 km/h (2 Bft)
15.12.2017 06:25 2,2 C 1,7 C 94 % 991,4 hPa 0,0 l/m 0,0 km/h (0 Bft) N 0 0 min 0,0 km/h (0 Bft)
15.12.2017 06:20 2,2 C 1,7 C 94 % 991,3 hPa 0,0 l/m 0,0 km/h (0 Bft) N 0 0 min 0,0 km/h (0 Bft)
15.12.2017 06:15 2,2 C 1,7 C 94 % 991,3 hPa 0,0 l/m 0,0 km/h (0 Bft) N 0 0 min 0,0 km/h (0 Bft)
15.12.2017 06:10 2,2 C 1,7 C 94 % 991,2 hPa 0,0 l/m 0,0 km/h (0 Bft) N 0 0 min 0,0 km/h (0 Bft)
15.12.2017 06:05 2,2 C 1,7 C 94 % 991,1 hPa 0,0 l/m 0,0 km/h (0 Bft) N 0 0 min 0,0 km/h (0 Bft)
15.12.2017 06:00 2,2 C 1,7 C 94 % 991,1 hPa 0,0 l/m 0,0 km/h (0 Bft) N 0 0 min 0,0 km/h (0 Bft)
15.12.2017 05:55 2,2 C 2,2 C 94 % 991,0 hPa 0,0 l/m 1,6 km/h (1 Bft) S-SW 202 0 min 8,0 km/h (2 Bft)
15.12.2017 05:50 2,2 C 2,2 C 94 % 991,1 hPa 0,0 l/m 1,6 km/h (1 Bft) S-SW 202 0 min 9,7 km/h (2 Bft)
15.12.2017 05:45 2,2 C 2,2 C 94 % 991,0 hPa 0,0 l/m 1,6 km/h (1 Bft) S-SW 202 0 min 4,8 km/h (1 Bft)
15.12.2017 05:40 2,2 C 2,2 C 94 % 990,9 hPa 0,0 l/m 1,6 km/h (1 Bft) S-SW 202 0 min 8,0 km/h (2 Bft)
15.12.2017 05:35 2,2 C 2,2 C 94 % 990,9 hPa 0,0 l/m 1,6 km/h (1 Bft) S-SW 202 0 min 8,0 km/h (2 Bft)
15.12.2017 05:30 2,2 C 2,2 C 94 % 990,9 hPa 0,0 l/m 0,0 km/h (0 Bft) S-SW 202 0 min 6,4 km/h (2 Bft)
15.12.2017 05:25 2,2 C 2,2 C 94 % 990,9 hPa 0,0 l/m 0,0 km/h (0 Bft) S-SW 202 0 min 3,2 km/h (1 Bft)
15.12.2017 05:20 2,2 C 1,7 C 94 % 990,9 hPa 0,0 l/m 0,0 km/h (0 Bft) S-SW 202 0 min 8,0 km/h (2 Bft)
15.12.2017 05:15 2,2 C 1,7 C 94 % 990,9 hPa 0,0 l/m 0,0 km/h (0 Bft) N 0 0 min 0,0 km/h (0 Bft)
15.12.2017 05:10 2,2 C 1,7 C 94 % 990,8 hPa 0,0 l/m 0,0 km/h (0 Bft) N 0 0 min 0,0 km/h (0 Bft)
15.12.2017 05:05 2,2 C 2,2 C 94 % 990,8 hPa 0,0 l/m 0,0 km/h (0 Bft) N 0 0 min 0,0 km/h (0 Bft)
15.12.2017 05:00 2,2 C 1,7 C 94 % 990,8 hPa 0,0 l/m 0,0 km/h (0 Bft) N 0 0 min 0,0 km/h (0 Bft)
15.12.2017 04:55 2,2 C 1,7 C 94 % 990,7 hPa 0,0 l/m 0,0 km/h (0 Bft) N 0 0 min 0,0 km/h (0 Bft)
15.12.2017 04:50 2,2 C 1,7 C 94 % 990,7 hPa 0,0 l/m 0,0 km/h (0 Bft) S-SW 202 0 min 6,4 km/h (2 Bft)
15.12.2017 04:45 2,2 C 2,2 C 94 % 990,6 hPa 0,0 l/m 0,0 km/h (0 Bft) S-SW 202 0 min 8,0 km/h (2 Bft)
15.12.2017 04:40 2,2 C 2,2 C 94 % 990,6 hPa 0,0 l/m 0,0 km/h (0 Bft) N 0 0 min 0,0 km/h (0 Bft)
15.12.2017 04:35 2,2 C 2,2 C 94 % 990,6 hPa 0,0 l/m 1,6 km/h (1 Bft) S-SW 202 0 min 11,3 km/h (2 Bft)
15.12.2017 04:30 2,2 C 2,2 C 94 % 990,5 hPa 0,0 l/m 0,0 km/h (0 Bft) N 0 0 min 0,0 km/h (0 Bft)
15.12.2017 04:25 2,2 C 2,2 C 94 % 990,5 hPa 0,0 l/m 0,0 km/h (0 Bft) N 0 0 min 0,0 km/h (0 Bft)
15.12.2017 04:20 2,2 C 1,7 C 94 % 990,5 hPa 0,0 l/m 0,0 km/h (0 Bft) N 0 0 min 0,0 km/h (0 Bft)
15.12.2017 04:15 2,2 C 2,2 C 94 % 990,4 hPa 0,0 l/m 0,0 km/h (0 Bft) N 0 0 min 0,0 km/h (0 Bft)
15.12.2017 04:10 2,2 C 2,2 C 94 % 990,5 hPa 0,0 l/m 0,0 km/h (0 Bft) N 0 0 min 0,0 km/h (0 Bft)
15.12.2017 04:05 2,2 C 2,2 C 94 % 990,4 hPa 0,0 l/m 0,0 km/h (0 Bft) N 0 0 min 0,0 km/h (0 Bft)
15.12.2017 04:00 2,2 C 2,2 C 94 % 990,3 hPa 0,0 l/m 0,0 km/h (0 Bft) N 0 0 min 0,0 km/h (0 Bft)
15.12.2017 03:55 2,2 C 2,2 C 94 % 990,3 hPa 0,0 l/m 1,6 km/h (1 Bft) S-SW 202 0 min 6,4 km/h (2 Bft)
15.12.2017 03:50 2,2 C 2,2 C 94 % 990,3 hPa 0,0 l/m 1,6 km/h (1 Bft) S-SW 202 0 min 9,7 km/h (2 Bft)
15.12.2017 03:45 2,3 C 2,2 C 94 % 990,3 hPa 0,0 l/m 1,6 km/h (1 Bft) S-SW 202 0 min 6,4 km/h (2 Bft)
15.12.2017 03:40 2,3 C 1,7 C 94 % 990,2 hPa 0,0 l/m 0,0 km/h (0 Bft) N 0 0 min 0,0 km/h (0 Bft)
15.12.2017 03:35 2,3 C 2,2 C 94 % 990,2 hPa 0,0 l/m 1,6 km/h (1 Bft) S-SW 202 0 min 6,4 km/h (2 Bft)
15.12.2017 03:30 2,3 C 2,2 C 94 % 990,1 hPa 0,0 l/m 3,2 km/h (1 Bft) S-SW 202 0 min 12,9 km/h (3 Bft)
15.12.2017 03:25 2,3 C 2,2 C 94 % 990,1 hPa 0,0 l/m 0,0 km/h (0 Bft) N 0 0 min 0,0 km/h (0 Bft)
15.12.2017 03:20 2,3 C 2,2 C 94 % 990,1 hPa 0,0 l/m 1,6 km/h (1 Bft) S-SW 202 0 min 12,9 km/h (3 Bft)
15.12.2017 03:15 2,3 C 2,2 C 94 % 990,1 hPa 0,0 l/m 3,2 km/h (1 Bft) S-SW 202 0 min 9,7 km/h (2 Bft)
15.12.2017 03:10 2,3 C 2,2 C 94 % 990,1 hPa 0,0 l/m 3,2 km/h (1 Bft) S-SW 202 0 min 9,7 km/h (2 Bft)
15.12.2017 03:05 2,3 C 2,2 C 94 % 990,1 hPa 0,0 l/m 3,2 km/h (1 Bft) S-SW 202 0 min 9,7 km/h (2 Bft)
15.12.2017 03:00 2,3 C 2,2 C 94 % 990,1 hPa 0,0 l/m 1,6 km/h (1 Bft) S-SW 202 0 min 9,7 km/h (2 Bft)
15.12.2017 02:55 2,3 C 2,2 C 94 % 990,0 hPa 0,0 l/m 1,6 km/h (1 Bft) S-SW 202 0 min 8,0 km/h (2 Bft)
15.12.2017 02:50 2,3 C 2,2 C 94 % 990,0 hPa 0,0 l/m 4,8 km/h (1 Bft) S-SW 202 0 min 12,9 km/h (3 Bft)
15.12.2017 02:45 2,3 C 2,2 C 94 % 989,9 hPa 0,0 l/m 4,8 km/h (1 Bft) S-SW 202 0 min 12,9 km/h (3 Bft)
15.12.2017 02:40 2,3 C 2,2 C 94 % 989,8 hPa 0,0 l/m 0,0 km/h (0 Bft) N 0 0 min 0,0 km/h (0 Bft)
15.12.2017 02:35 2,3 C 2,2 C 94 % 989,9 hPa 0,0 l/m 0,0 km/h (0 Bft) N 0 0 min 0,0 km/h (0 Bft)
15.12.2017 02:30 2,3 C 2,2 C 94 % 989,9 hPa 0,0 l/m 0,0 km/h (0 Bft) N 0 0 min 0,0 km/h (0 Bft)
15.12.2017 02:25 2,3 C 2,2 C 94 % 989,9 hPa 0,0 l/m 0,0 km/h (0 Bft) N 0 0 min 0,0 km/h (0 Bft)
15.12.2017 02:20 2,3 C 2,2 C 94 % 989,9 hPa 0,0 l/m 0,0 km/h (0 Bft) N 0 0 min 0,0 km/h (0 Bft)
15.12.2017 02:15 2,3 C 2,2 C 94 % 989,9 hPa 0,0 l/m 1,6 km/h (1 Bft) S-SW 202 0 min 9,7 km/h (2 Bft)
15.12.2017 02:10 2,3 C 2,2 C 94 % 989,9 hPa 0,0 l/m 1,6 km/h (1 Bft) S-SW 202 0 min 12,9 km/h (3 Bft)
15.12.2017 02:05 2,3 C 2,2 C 94 % 989,8 hPa 0,0 l/m 3,2 km/h (1 Bft) S-SW 202 0 min 9,7 km/h (2 Bft)
15.12.2017 02:00 2,3 C 2,2 C 94 % 989,8 hPa 0,0 l/m 4,8 km/h (1 Bft) S-SW 202 0 min 12,9 km/h (3 Bft)
15.12.2017 01:55 2,3 C 2,2 C 94 % 989,8 hPa 0,0 l/m 3,2 km/h (1 Bft) S-SW 202 0 min 12,9 km/h (3 Bft)
15.12.2017 01:50 2,3 C 2,2 C 94 % 989,8 hPa 0,0 l/m 3,2 km/h (1 Bft) S-SW 202 0 min 9,7 km/h (2 Bft)
15.12.2017 01:45 2,3 C 2,2 C 94 % 989,8 hPa 0,0 l/m 3,2 km/h (1 Bft) S-SW 202 0 min 12,9 km/h (3 Bft)
15.12.2017 01:40 2,3 C 1,7 C 94 % 989,8 hPa 0,0 l/m 3,2 km/h (1 Bft) S-SW 202 0 min 11,3 km/h (2 Bft)
15.12.2017 01:35 2,4 C 1,7 C 94 % 989,7 hPa 0,0 l/m 6,4 km/h (2 Bft) S-SW 202 0 min 16,1 km/h (3 Bft)
15.12.2017 01:30 2,4 C 2,2 C 94 % 989,7 hPa 0,0 l/m 4,8 km/h (1 Bft) S-SW 202 0 min 12,9 km/h (3 Bft)
15.12.2017 01:25 2,4 C 2,2 C 94 % 989,7 hPa 0,0 l/m 3,2 km/h (1 Bft) S-SW 202 0 min 12,9 km/h (3 Bft)
15.12.2017 01:20 2,5 C 2,2 C 94 % 989,6 hPa 0,0 l/m 4,8 km/h (1 Bft) S-SW 202 0 min 11,3 km/h (2 Bft)
15.12.2017 01:15 2,5 C 2,2 C 94 % 989,6 hPa 0,0 l/m 3,2 km/h (1 Bft) S-SW 202 0 min 11,3 km/h (2 Bft)
15.12.2017 01:10 2,6 C 2,2 C 94 % 989,6 hPa 0,0 l/m 4,8 km/h (1 Bft) S-SW 202 0 min 14,5 km/h (3 Bft)
15.12.2017 01:05 2,6 C 2,2 C 94 % 989,6 hPa 0,0 l/m 1,6 km/h (1 Bft) S-SW 202 0 min 9,7 km/h (2 Bft)
15.12.2017 01:00 2,6 C 2,2 C 94 % 989,6 hPa 0,0 l/m 6,4 km/h (2 Bft) S-SW 202 0 min 16,1 km/h (3 Bft)
15.12.2017 00:55 2,6 C 2,2 C 94 % 989,7 hPa 0,0 l/m 6,4 km/h (2 Bft) S-SW 202 0 min 16,1 km/h (3 Bft)
15.12.2017 00:50 2,6 C 2,2 C 94 % 989,6 hPa 0,0 l/m 4,8 km/h (1 Bft) S-SW 202 0 min 14,5 km/h (3 Bft)
15.12.2017 00:45 2,6 C 2,2 C 94 % 989,6 hPa 0,0 l/m 1,6 km/h (1 Bft) S-SW 202 0 min 11,3 km/h (2 Bft)
15.12.2017 00:40 2,6 C 2,2 C 94 % 989,5 hPa 0,0 l/m 1,6 km/h (1 Bft) S-SW 202 0 min 8,0 km/h (2 Bft)
15.12.2017 00:35 2,6 C 2,2 C 94 % 989,5 hPa 0,0 l/m 3,2 km/h (1 Bft) S-SW 202 0 min 11,3 km/h (2 Bft)
15.12.2017 00:30 2,6 C 2,2 C 94 % 989,4 hPa 0,0 l/m 0,0 km/h (0 Bft) S-SW 202 0 min 6,4 km/h (2 Bft)
15.12.2017 00:25 2,6 C 2,2 C 94 % 989,4 hPa 0,0 l/m 3,2 km/h (1 Bft) S-SW 202 0 min 11,3 km/h (2 Bft)
15.12.2017 00:20 2,6 C 2,2 C 94 % 989,3 hPa 0,0 l/m 1,6 km/h (1 Bft) S-SW 202 0 min 8,0 km/h (2 Bft)
15.12.2017 00:15 2,6 C 2,2 C 94 % 989,3 hPa 0,0 l/m 3,2 km/h (1 Bft) S-SW 202 0 min 9,7 km/h (2 Bft)
15.12.2017 00:10 2,6 C 2,2 C 94 % 989,3 hPa 0,0 l/m 1,6 km/h (1 Bft) S-SW 202 0 min 11,3 km/h (2 Bft)
15.12.2017 00:05 2,6 C 2,2 C 94 % 989,2 hPa 0,0 l/m 3,2 km/h (1 Bft) S-SW 202 0 min 14,5 km/h (3 Bft)
15.12.2017 00:00 2,6 C 2,2 C 94 % 989,2 hPa 0,0 l/m 4,8 km/h (1 Bft) S-SW 202 0 min 12,9 km/h (3 Bft)
_ Min-Zeit 09:55 06:50 18:45 00:00 - 00:30 - - - 02:20
Minimum _ 1,8 C 1,1 C 91 % 989,2 hPa - 0,0 km/h (0 Bft) - - - 0,0 km/h (0 Bft)
_ Max-Zeit 12:00 12:00 00:00 20:05 00:00 12:10 - - 11:05 00:55
Maximum _ 3,1 C 4,4 C 94 % 999,3 hPa 0,0 l/m 9,7 km/h
S-SW (2 Bft)
- - 5 min 16,1 km/h
S-SW (3 Bft)
Durchschnitt _ 2,4 C 2,4 C 93 % 993,9 hPa #0,0 l/m 1,5 km/h (1 Bft) S-SW - #15 min. 5,6 km/h (1 Bft)